Sky Ever — DSQX9 — position and weather

sailwx.info

Track history (hours):
 
Tides and Currents Weather Stations Pressure Air Temp Water Temp Dewpoint Dewpoint Depression Visibility Wind Speed Wind Dir Waves Ship Positions

Sky Ever

Last reported at 2016-Feb-05 12:33 UTC. Time now 2016-Feb-11 10:50 UTC.
Position N 34°36' E 134°56'.

Length 76 m; draft 3.4 m.

Type: Cargo ship. MMSI: 441751000.

Date/timePositionNaut miles runAvg speedWind from/ knotsBaromVisibWave heightAir tempDewpointWater temp
2016-Feb-05 12:33N 34°36' E 134°56'7 7.3
2016-Feb-05 11:33N 34°36' E 135°05'8 8.2
2016-Feb-05 10:33N 34°36' E 135°15'8 7.9
2016-Feb-05 09:32N 34°39' E 135°24'2 1.5
2016-Feb-05 08:28N 34°39' E 135°26'0 0.0
2016-Feb-05 07:22N 34°39' E 135°26'0 0.0
2016-Feb-05 06:22N 34°39' E 135°26'0 0.0
2016-Feb-05 05:28N 34°39' E 135°26'0 0.0
2016-Feb-05 04:28N 34°39' E 135°26'0 0.0
2016-Feb-05 03:28N 34°39' E 135°26'0 0.0
2016-Feb-05 02:28N 34°39' E 135°26'0 0.0
2016-Feb-05 01:22N 34°39' E 135°26'0 0.0
2016-Feb-05 00:10N 34°39' E 135°26'0 0.0
2016-Feb-04 23:22N 34°39' E 135°26'0 0.0
2016-Feb-04 22:28N 34°39' E 135°26'0 0.0
2016-Feb-04 21:28N 34°39' E 135°26'0 0.0
2016-Feb-04 20:28N 34°39' E 135°26'0 0.0
2016-Feb-04 19:22N 34°39' E 135°26'0 0.0
2016-Feb-04 18:28N 34°39' E 135°26'0 0.0
2016-Feb-04 17:28N 34°39' E 135°26'0 0.0
2016-Feb-04 16:22N 34°39' E 135°26'0 0.0
2016-Feb-04 15:16N 34°39' E 135°26'0 0.0
2016-Feb-04 14:16N 34°39' E 135°26'0 0.0
2016-Feb-04 13:22N 34°39' E 135°26'0 0.0
2016-Feb-04 12:10N 34°39' E 135°26'0 0.0
2016-Feb-04 11:28N 34°39' E 135°26'0 0.0
2016-Feb-04 10:28N 34°39' E 135°26'0 0.0
2016-Feb-04 09:28N 34°39' E 135°26'0 0.0
2016-Feb-04 08:28N 34°39' E 135°26'0 0.0
2016-Feb-04 06:22N 34°39' E 135°26'0 0.0
2016-Feb-04 05:28N 34°39' E 135°26'0 0.0
2016-Feb-04 04:22N 34°39' E 135°26'0 0.0
2016-Feb-04 03:22N 34°39' E 135°26'0 0.0
2016-Feb-04 02:10N 34°39' E 135°26'0 0.0
2016-Feb-04 01:28N 34°39' E 135°26'0 0.0
2016-Feb-04 00:22N 34°39' E 135°26'0 0.0
2016-Feb-03 23:28N 34°39' E 135°26'0 0.0
2016-Feb-03 22:32N 34°39' E 135°26'4 4.4
2016-Feb-03 21:33N 34°37' E 135°21'7 6.6
2016-Feb-03 20:33N 34°36' E 135°13'7 7.1
2016-Feb-03 19:33N 34°35' E 135°05'6 5.2
2016-Feb-03 18:30N 34°37' E 134°59'  
Track history (hours):
 
Tides and Currents Weather Stations Pressure Air Temp Water Temp Dewpoint Dewpoint Depression Visibility Wind Speed Wind Dir Waves Ship Positions

Sky Ever

Last reported at 2016-Feb-05 12:33 UTC. Time now 2016-Feb-11 10:50 UTC.
Position N 34°36' E 134°56'.

Length 76 m; draft 3.4 m.

Type: Cargo ship. MMSI: 441751000.

Date/timePositionNaut miles runAvg speedWind from/ knotsBaromVisibWave heightAir tempDewpointWater temp
2016-Feb-05 12:33N 34°36' E 134°56'7 7.3
2016-Feb-05 11:33N 34°36' E 135°05'8 8.2
2016-Feb-05 10:33N 34°36' E 135°15'8 7.9
2016-Feb-05 09:32N 34°39' E 135°24'2 1.5
2016-Feb-05 08:28N 34°39' E 135°26'0 0.0
2016-Feb-05 07:22N 34°39' E 135°26'0 0.0
2016-Feb-05 06:22N 34°39' E 135°26'0 0.0
2016-Feb-05 05:28N 34°39' E 135°26'0 0.0
2016-Feb-05 04:28N 34°39' E 135°26'0 0.0
2016-Feb-05 03:28N 34°39' E 135°26'0 0.0
2016-Feb-05 02:28N 34°39' E 135°26'0 0.0
2016-Feb-05 01:22N 34°39' E 135°26'0 0.0
2016-Feb-05 00:10N 34°39' E 135°26'0 0.0
2016-Feb-04 23:22N 34°39' E 135°26'0 0.0
2016-Feb-04 22:28N 34°39' E 135°26'0 0.0
2016-Feb-04 21:28N 34°39' E 135°26'0 0.0
2016-Feb-04 20:28N 34°39' E 135°26'0 0.0
2016-Feb-04 19:22N 34°39' E 135°26'0 0.0
2016-Feb-04 18:28N 34°39' E 135°26'0 0.0
2016-Feb-04 17:28N 34°39' E 135°26'0 0.0
2016-Feb-04 16:22N 34°39' E 135°26'0 0.0
2016-Feb-04 15:16N 34°39' E 135°26'0 0.0
2016-Feb-04 14:16N 34°39' E 135°26'0 0.0
2016-Feb-04 13:22N 34°39' E 135°26'0 0.0
2016-Feb-04 12:10N 34°39' E 135°26'0 0.0
2016-Feb-04 11:28N 34°39' E 135°26'0 0.0
2016-Feb-04 10:28N 34°39' E 135°26'0 0.0
2016-Feb-04 09:28N 34°39' E 135°26'0 0.0
2016-Feb-04 08:28N 34°39' E 135°26'0 0.0
2016-Feb-04 06:22N 34°39' E 135°26'0 0.0
2016-Feb-04 05:28N 34°39' E 135°26'0 0.0
2016-Feb-04 04:22N 34°39' E 135°26'0 0.0
2016-Feb-04 03:22N 34°39' E 135°26'0 0.0
2016-Feb-04 02:10N 34°39' E 135°26'0 0.0
2016-Feb-04 01:28N 34°39' E 135°26'0 0.0
2016-Feb-04 00:22N 34°39' E 135°26'0 0.0
2016-Feb-03 23:28N 34°39' E 135°26'0 0.0
2016-Feb-03 22:32N 34°39' E 135°26'4 4.4
2016-Feb-03 21:33N 34°37' E 135°21'7 6.6
2016-Feb-03 20:33N 34°36' E 135°13'7 7.1
2016-Feb-03 19:33N 34°35' E 135°05'6 5.2
2016-Feb-03 18:30N 34°37' E 134°59'  

Dump ship's entire track history